sensor_id;sensor_type;location;lat;lon;timestamp;P1;durP1;ratioP1;P2;durP2;ratioP2
20170;SDS011;10245;51.344;6.620;2024-02-28T00:00:15;49.47;;;28.27;;
20170;SDS011;10245;51.344;6.620;2024-02-28T00:02:39;45.20;;;25.63;;
20170;SDS011;10245;51.344;6.620;2024-02-28T00:05:02;53.93;;;29.60;;
20170;SDS011;10245;51.344;6.620;2024-02-28T00:07:26;52.75;;;27.30;;
20170;SDS011;10245;51.344;6.620;2024-02-28T00:09:49;48.80;;;27.20;;
20170;SDS011;10245;51.344;6.620;2024-02-28T00:12:12;54.47;;;30.25;;
20170;SDS011;10245;51.344;6.620;2024-02-28T00:14:38;49.83;;;27.97;;
20170;SDS011;10245;51.344;6.620;2024-02-28T00:17:02;56.17;;;29.07;;
20170;SDS011;10245;51.344;6.620;2024-02-28T00:19:25;56.15;;;27.65;;
20170;SDS011;10245;51.344;6.620;2024-02-28T00:21:48;57.90;;;30.20;;
20170;SDS011;10245;51.344;6.620;2024-02-28T00:24:11;56.77;;;29.80;;
20170;SDS011;10245;51.344;6.620;2024-02-28T00:26:35;49.73;;;27.50;;
20170;SDS011;10245;51.344;6.620;2024-02-28T00:28:59;57.10;;;28.87;;
20170;SDS011;10245;51.344;6.620;2024-02-28T00:31:25;53.00;;;28.97;;
20170;SDS011;10245;51.344;6.620;2024-02-28T00:33:48;54.97;;;29.15;;
20170;SDS011;10245;51.344;6.620;2024-02-28T00:36:11;78.00;;;36.10;;
20170;SDS011;10245;51.344;6.620;2024-02-28T00:38:36;58.13;;;29.90;;
20170;SDS011;10245;51.344;6.620;2024-02-28T00:40:59;59.47;;;30.10;;
20170;SDS011;10245;51.344;6.620;2024-02-28T00:43:23;54.33;;;29.13;;
20170;SDS011;10245;51.344;6.620;2024-02-28T00:45:46;53.53;;;29.23;;
20170;SDS011;10245;51.344;6.620;2024-02-28T00:48:10;50.70;;;27.63;;
20170;SDS011;10245;51.344;6.620;2024-02-28T00:50:34;48.20;;;25.07;;
20170;SDS011;10245;51.344;6.620;2024-02-28T00:52:57;52.13;;;28.17;;
20170;SDS011;10245;51.344;6.620;2024-02-28T00:55:20;56.13;;;28.67;;
20170;SDS011;10245;51.344;6.620;2024-02-28T00:57:43;50.27;;;26.83;;
20170;SDS011;10245;51.344;6.620;2024-02-28T01:00:07;50.87;;;27.30;;
20170;SDS011;10245;51.344;6.620;2024-02-28T01:02:32;52.30;;;29.33;;
20170;SDS011;10245;51.344;6.620;2024-02-28T01:04:56;56.83;;;29.03;;
20170;SDS011;10245;51.344;6.620;2024-02-28T01:07:20;48.40;;;26.27;;
20170;SDS011;10245;51.344;6.620;2024-02-28T01:09:43;53.30;;;27.37;;
20170;SDS011;10245;51.344;6.620;2024-02-28T01:12:07;52.73;;;25.73;;
20170;SDS011;10245;51.344;6.620;2024-02-28T01:14:30;49.87;;;26.93;;
20170;SDS011;10245;51.344;6.620;2024-02-28T01:16:53;55.60;;;28.93;;
20170;SDS011;10245;51.344;6.620;2024-02-28T01:19:16;50.03;;;26.50;;
20170;SDS011;10245;51.344;6.620;2024-02-28T01:21:41;48.63;;;25.63;;
20170;SDS011;10245;51.344;6.620;2024-02-28T01:24:05;46.53;;;25.37;;
20170;SDS011;10245;51.344;6.620;2024-02-28T01:26:29;52.77;;;27.33;;
20170;SDS011;10245;51.344;6.620;2024-02-28T01:28:52;47.57;;;25.60;;
20170;SDS011;10245;51.344;6.620;2024-02-28T01:31:15;44.33;;;26.00;;
20170;SDS011;10245;51.344;6.620;2024-02-28T01:33:40;50.20;;;26.33;;
20170;SDS011;10245;51.344;6.620;2024-02-28T01:36:04;45.97;;;25.20;;
20170;SDS011;10245;51.344;6.620;2024-02-28T01:38:30;49.23;;;26.83;;
20170;SDS011;10245;51.344;6.620;2024-02-28T01:40:53;55.67;;;28.67;;
20170;SDS011;10245;51.344;6.620;2024-02-28T01:43:17;54.77;;;28.43;;
20170;SDS011;10245;51.344;6.620;2024-02-28T01:45:41;58.77;;;29.70;;
20170;SDS011;10245;51.344;6.620;2024-02-28T01:48:04;60.77;;;30.27;;
20170;SDS011;10245;51.344;6.620;2024-02-28T01:50:33;57.23;;;29.80;;
20170;SDS011;10245;51.344;6.620;2024-02-28T01:52:56;59.83;;;28.90;;
20170;SDS011;10245;51.344;6.620;2024-02-28T01:55:23;64.47;;;31.77;;
20170;SDS011;10245;51.344;6.620;2024-02-28T01:57:46;58.20;;;29.27;;
20170;SDS011;10245;51.344;6.620;2024-02-28T02:00:10;56.73;;;29.00;;
20170;SDS011;10245;51.344;6.620;2024-02-28T02:02:34;55.30;;;29.27;;
20170;SDS011;10245;51.344;6.620;2024-02-28T02:04:58;56.13;;;29.60;;
20170;SDS011;10245;51.344;6.620;2024-02-28T02:07:22;56.97;;;30.27;;
20170;SDS011;10245;51.344;6.620;2024-02-28T02:09:45;58.70;;;31.33;;
20170;SDS011;10245;51.344;6.620;2024-02-28T02:12:10;59.50;;;30.90;;
20170;SDS011;10245;51.344;6.620;2024-02-28T02:14:33;60.73;;;29.43;;
20170;SDS011;10245;51.344;6.620;2024-02-28T02:16:56;55.73;;;29.53;;
20170;SDS011;10245;51.344;6.620;2024-02-28T02:19:20;63.03;;;31.53;;
20170;SDS011;10245;51.344;6.620;2024-02-28T02:21:48;62.23;;;30.97;;
20170;SDS011;10245;51.344;6.620;2024-02-28T02:24:16;57.27;;;28.87;;
20170;SDS011;10245;51.344;6.620;2024-02-28T02:26:39;50.27;;;27.77;;
20170;SDS011;10245;51.344;6.620;2024-02-28T02:29:05;51.80;;;28.43;;
20170;SDS011;10245;51.344;6.620;2024-02-28T02:31:30;56.50;;;29.07;;
20170;SDS011;10245;51.344;6.620;2024-02-28T02:33:54;54.30;;;28.43;;
20170;SDS011;10245;51.344;6.620;2024-02-28T02:36:17;64.73;;;31.73;;
20170;SDS011;10245;51.344;6.620;2024-02-28T02:38:41;67.20;;;32.93;;
20170;SDS011;10245;51.344;6.620;2024-02-28T02:41:05;72.53;;;34.80;;
20170;SDS011;10245;51.344;6.620;2024-02-28T02:43:29;76.37;;;37.10;;
20170;SDS011;10245;51.344;6.620;2024-02-28T02:45:52;74.30;;;37.07;;
20170;SDS011;10245;51.344;6.620;2024-02-28T02:48:14;73.57;;;36.17;;
20170;SDS011;10245;51.344;6.620;2024-02-28T02:50:38;78.40;;;37.57;;
20170;SDS011;10245;51.344;6.620;2024-02-28T02:53:02;85.40;;;38.67;;
20170;SDS011;10245;51.344;6.620;2024-02-28T02:55:26;84.10;;;40.53;;
20170;SDS011;10245;51.344;6.620;2024-02-28T02:57:51;295.50;;;54.27;;
20170;SDS011;10245;51.344;6.620;2024-02-28T03:00:15;512.10;;;68.73;;
20170;SDS011;10245;51.344;6.620;2024-02-28T03:02:39;782.20;;;91.87;;
20170;SDS011;10245;51.344;6.620;2024-02-28T03:05:03;107.47;;;46.60;;
20170;SDS011;10245;51.344;6.620;2024-02-28T03:07:27;102.27;;;42.90;;
20170;SDS011;10245;51.344;6.620;2024-02-28T03:09:50;109.83;;;45.37;;
20170;SDS011;10245;51.344;6.620;2024-02-28T03:12:13;317.53;;;58.97;;
20170;SDS011;10245;51.344;6.620;2024-02-28T03:14:39;102.47;;;48.17;;
20170;SDS011;10245;51.344;6.620;2024-02-28T03:17:02;861.17;;;99.13;;
20170;SDS011;10245;51.344;6.620;2024-02-28T03:19:25;106.77;;;46.47;;
20170;SDS011;10245;51.344;6.620;2024-02-28T03:21:51;160.07;;;49.07;;
20170;SDS011;10245;51.344;6.620;2024-02-28T03:24:14;137.87;;;51.07;;
20170;SDS011;10245;51.344;6.620;2024-02-28T03:26:38;139.70;;;50.77;;
20170;SDS011;10245;51.344;6.620;2024-02-28T03:29:02;944.97;;;101.33;;
20170;SDS011;10245;51.344;6.620;2024-02-28T03:31:26;599.73;;;78.87;;
20170;SDS011;10245;51.344;6.620;2024-02-28T03:33:51;833.47;;;103.83;;
20170;SDS011;10245;51.344;6.620;2024-02-28T03:36:14;462.07;;;70.67;;
20170;SDS011;10245;51.344;6.620;2024-02-28T03:38:37;123.50;;;51.53;;
20170;SDS011;10245;51.344;6.620;2024-02-28T03:41:01;309.03;;;63.20;;
20170;SDS011;10245;51.344;6.620;2024-02-28T03:43:26;1142.83;;;113.37;;
20170;SDS011;10245;51.344;6.620;2024-02-28T03:45:49;879.13;;;107.80;;
20170;SDS011;10245;51.344;6.620;2024-02-28T03:48:14;1016.70;;;111.83;;
20170;SDS011;10245;51.344;6.620;2024-02-28T03:50:38;728.20;;;103.70;;
20170;SDS011;10245;51.344;6.620;2024-02-28T03:53:02;746.80;;;95.40;;
20170;SDS011;10245;51.344;6.620;2024-02-28T03:55:25;1163.57;;;130.73;;
20170;SDS011;10245;51.344;6.620;2024-02-28T03:57:49;1125.20;;;121.77;;
20170;SDS011;10245;51.344;6.620;2024-02-28T04:00:14;1113.83;;;126.77;;
20170;SDS011;10245;51.344;6.620;2024-02-28T04:02:38;184.53;;;59.27;;
20170;SDS011;10245;51.344;6.620;2024-02-28T04:05:04;1043.23;;;120.60;;
20170;SDS011;10245;51.344;6.620;2024-02-28T04:07:28;1143.40;;;131.97;;
20170;SDS011;10245;51.344;6.620;2024-02-28T04:09:51;1132.00;;;128.17;;
20170;SDS011;10245;51.344;6.620;2024-02-28T04:12:14;881.63;;;105.90;;
20170;SDS011;10245;51.344;6.620;2024-02-28T04:14:38;880.07;;;107.17;;
20170;SDS011;10245;51.344;6.620;2024-02-28T04:17:02;733.70;;;106.43;;
20170;SDS011;10245;51.344;6.620;2024-02-28T04:19:25;693.87;;;94.07;;
20170;SDS011;10245;51.344;6.620;2024-02-28T04:21:50;1098.30;;;127.00;;
20170;SDS011;10245;51.344;6.620;2024-02-28T04:24:13;166.37;;;63.03;;
20170;SDS011;10245;51.344;6.620;2024-02-28T04:26:38;751.53;;;101.90;;
20170;SDS011;10245;51.344;6.620;2024-02-28T04:29:01;456.33;;;80.90;;
20170;SDS011;10245;51.344;6.620;2024-02-28T04:31:26;727.97;;;99.27;;
20170;SDS011;10245;51.344;6.620;2024-02-28T04:33:49;899.80;;;116.47;;
20170;SDS011;10245;51.344;6.620;2024-02-28T04:36:13;1157.10;;;141.50;;
20170;SDS011;10245;51.344;6.620;2024-02-28T04:38:38;1285.20;;;145.87;;
20170;SDS011;10245;51.344;6.620;2024-02-28T04:41:02;316.48;;;76.65;;
20170;SDS011;10245;51.344;6.620;2024-02-28T04:43:26;682.90;;;97.83;;
20170;SDS011;10245;51.344;6.620;2024-02-28T04:45:50;174.83;;;64.00;;
20170;SDS011;10245;51.344;6.620;2024-02-28T04:48:13;437.07;;;79.73;;
20170;SDS011;10245;51.344;6.620;2024-02-28T04:50:37;203.97;;;65.80;;
20170;SDS011;10245;51.344;6.620;2024-02-28T04:53:00;150.93;;;62.67;;
20170;SDS011;10245;51.344;6.620;2024-02-28T04:55:25;714.35;;;107.78;;
20170;SDS011;10245;51.344;6.620;2024-02-28T04:57:48;182.77;;;61.63;;
20170;SDS011;10245;51.344;6.620;2024-02-28T05:00:12;718.03;;;108.87;;
20170;SDS011;10245;51.344;6.620;2024-02-28T05:02:36;1001.20;;;121.17;;
20170;SDS011;10245;51.344;6.620;2024-02-28T05:04:59;320.17;;;78.13;;
20170;SDS011;10245;51.344;6.620;2024-02-28T05:07:22;678.10;;;97.70;;
20170;SDS011;10245;51.344;6.620;2024-02-28T05:09:46;462.40;;;86.33;;
20170;SDS011;10245;51.344;6.620;2024-02-28T05:12:11;242.13;;;73.93;;
20170;SDS011;10245;51.344;6.620;2024-02-28T05:14:35;416.20;;;84.93;;
20170;SDS011;10245;51.344;6.620;2024-02-28T05:16:59;595.90;;;100.93;;
20170;SDS011;10245;51.344;6.620;2024-02-28T05:19:23;664.93;;;106.33;;
20170;SDS011;10245;51.344;6.620;2024-02-28T05:21:46;236.53;;;75.73;;
20170;SDS011;10245;51.344;6.620;2024-02-28T05:24:11;724.10;;;115.50;;
20170;SDS011;10245;51.344;6.620;2024-02-28T05:26:35;811.40;;;117.90;;
20170;SDS011;10245;51.344;6.620;2024-02-28T05:29:00;714.37;;;106.00;;
20170;SDS011;10245;51.344;6.620;2024-02-28T05:31:24;928.90;;;131.10;;
20170;SDS011;10245;51.344;6.620;2024-02-28T05:33:50;704.00;;;106.33;;
20170;SDS011;10245;51.344;6.620;2024-02-28T05:36:14;230.50;;;70.33;;
20170;SDS011;10245;51.344;6.620;2024-02-28T05:38:37;203.13;;;73.37;;
20170;SDS011;10245;51.344;6.620;2024-02-28T05:41:00;847.53;;;121.00;;
20170;SDS011;10245;51.344;6.620;2024-02-28T05:43:24;311.80;;;77.77;;
20170;SDS011;10245;51.344;6.620;2024-02-28T05:45:50;840.67;;;117.30;;
20170;SDS011;10245;51.344;6.620;2024-02-28T05:48:14;842.00;;;110.07;;
20170;SDS011;10245;51.344;6.620;2024-02-28T05:50:38;663.27;;;99.13;;
20170;SDS011;10245;51.344;6.620;2024-02-28T05:53:01;634.57;;;98.43;;
20170;SDS011;10245;51.344;6.620;2024-02-28T05:55:25;639.67;;;104.80;;
20170;SDS011;10245;51.344;6.620;2024-02-28T05:57:49;314.37;;;76.93;;
20170;SDS011;10245;51.344;6.620;2024-02-28T06:00:13;232.73;;;69.97;;
20170;SDS011;10245;51.344;6.620;2024-02-28T06:02:38;279.50;;;67.50;;
20170;SDS011;10245;51.344;6.620;2024-02-28T06:05:01;568.88;;;91.97;;
20170;SDS011;10245;51.344;6.620;2024-02-28T06:07:26;858.07;;;111.37;;
20170;SDS011;10245;51.344;6.620;2024-02-28T06:09:49;158.80;;;60.47;;
20170;SDS011;10245;51.344;6.620;2024-02-28T06:12:12;569.97;;;93.75;;
20170;SDS011;10245;51.344;6.620;2024-02-28T06:14:36;122.80;;;53.23;;
20170;SDS011;10245;51.344;6.620;2024-02-28T06:16:59;606.33;;;85.90;;
20170;SDS011;10245;51.344;6.620;2024-02-28T06:19:24;210.23;;;59.45;;
20170;SDS011;10245;51.344;6.620;2024-02-28T06:21:47;801.42;;;109.90;;
20170;SDS011;10245;51.344;6.620;2024-02-28T06:24:11;243.32;;;62.60;;
20170;SDS011;10245;51.344;6.620;2024-02-28T06:26:36;206.57;;;59.92;;
20170;SDS011;10245;51.344;6.620;2024-02-28T06:28:59;389.47;;;69.13;;
20170;SDS011;10245;51.344;6.620;2024-02-28T06:31:25;779.87;;;107.20;;
20170;SDS011;10245;51.344;6.620;2024-02-28T06:33:51;658.45;;;102.30;;
20170;SDS011;10245;51.344;6.620;2024-02-28T06:36:15;201.25;;;63.00;;
20170;SDS011;10245;51.344;6.620;2024-02-28T06:38:39;302.58;;;70.88;;
20170;SDS011;10245;51.344;6.620;2024-02-28T06:41:02;159.57;;;57.97;;
20170;SDS011;10245;51.344;6.620;2024-02-28T06:43:26;303.30;;;71.70;;
20170;SDS011;10245;51.344;6.620;2024-02-28T06:45:49;908.43;;;113.63;;
20170;SDS011;10245;51.344;6.620;2024-02-28T06:48:12;446.83;;;78.00;;
20170;SDS011;10245;51.344;6.620;2024-02-28T06:50:36;820.77;;;115.30;;
20170;SDS011;10245;51.344;6.620;2024-02-28T06:53:01;641.70;;;99.23;;
20170;SDS011;10245;51.344;6.620;2024-02-28T06:55:25;505.43;;;88.10;;
20170;SDS011;10245;51.344;6.620;2024-02-28T06:57:48;250.57;;;68.57;;
20170;SDS011;10245;51.344;6.620;2024-02-28T07:00:12;247.43;;;68.50;;
20170;SDS011;10245;51.344;6.620;2024-02-28T07:02:37;478.77;;;89.70;;
20170;SDS011;10245;51.344;6.620;2024-02-28T07:05:01;439.58;;;82.18;;
20170;SDS011;10245;51.344;6.620;2024-02-28T07:07:25;425.93;;;88.17;;
20170;SDS011;10245;51.344;6.620;2024-02-28T07:09:50;410.60;;;81.37;;
20170;SDS011;10245;51.344;6.620;2024-02-28T07:12:14;432.67;;;83.93;;
20170;SDS011;10245;51.344;6.620;2024-02-28T07:14:37;471.10;;;85.57;;
20170;SDS011;10245;51.344;6.620;2024-02-28T07:17:01;646.83;;;103.40;;
20170;SDS011;10245;51.344;6.620;2024-02-28T07:19:24;459.92;;;89.47;;
20170;SDS011;10245;51.344;6.620;2024-02-28T07:21:48;289.40;;;73.25;;
20170;SDS011;10245;51.344;6.620;2024-02-28T07:24:12;427.83;;;91.23;;
20170;SDS011;10245;51.344;6.620;2024-02-28T07:26:37;235.53;;;69.33;;
20170;SDS011;10245;51.344;6.620;2024-02-28T07:29:01;451.47;;;92.00;;
20170;SDS011;10245;51.344;6.620;2024-02-28T07:31:25;352.98;;;85.18;;
20170;SDS011;10245;51.344;6.620;2024-02-28T07:33:49;280.50;;;75.00;;
20170;SDS011;10245;51.344;6.620;2024-02-28T07:36:13;276.48;;;75.15;;
20170;SDS011;10245;51.344;6.620;2024-02-28T07:38:36;293.07;;;76.83;;
20170;SDS011;10245;51.344;6.620;2024-02-28T07:41:03;282.93;;;73.70;;
20170;SDS011;10245;51.344;6.620;2024-02-28T07:43:28;265.73;;;74.15;;
20170;SDS011;10245;51.344;6.620;2024-02-28T07:45:54;271.07;;;75.33;;
20170;SDS011;10245;51.344;6.620;2024-02-28T07:48:17;232.30;;;69.43;;
20170;SDS011;10245;51.344;6.620;2024-02-28T07:50:39;273.13;;;77.18;;
20170;SDS011;10245;51.344;6.620;2024-02-28T07:53:03;235.82;;;68.35;;
20170;SDS011;10245;51.344;6.620;2024-02-28T07:55:27;206.47;;;64.67;;
20170;SDS011;10245;51.344;6.620;2024-02-28T07:57:50;218.10;;;66.18;;
20170;SDS011;10245;51.344;6.620;2024-02-28T08:00:16;207.73;;;64.90;;
20170;SDS011;10245;51.344;6.620;2024-02-28T08:02:41;183.73;;;62.37;;
20170;SDS011;10245;51.344;6.620;2024-02-28T08:05:04;208.13;;;65.68;;
20170;SDS011;10245;51.344;6.620;2024-02-28T08:07:28;177.65;;;58.72;;
20170;SDS011;10245;51.344;6.620;2024-02-28T08:09:52;183.93;;;59.92;;
20170;SDS011;10245;51.344;6.620;2024-02-28T08:12:15;176.97;;;58.13;;
20170;SDS011;10245;51.344;6.620;2024-02-28T08:14:42;159.13;;;56.20;;
20170;SDS011;10245;51.344;6.620;2024-02-28T08:17:08;177.48;;;59.97;;
20170;SDS011;10245;51.344;6.620;2024-02-28T08:19:31;158.88;;;55.38;;
20170;SDS011;10245;51.344;6.620;2024-02-28T08:21:56;157.27;;;57.17;;
20170;SDS011;10245;51.344;6.620;2024-02-28T08:24:19;164.93;;;57.58;;
20170;SDS011;10245;51.344;6.620;2024-02-28T08:26:43;152.27;;;54.28;;
20170;SDS011;10245;51.344;6.620;2024-02-28T08:29:06;146.15;;;52.67;;
20170;SDS011;10245;51.344;6.620;2024-02-28T08:31:30;134.10;;;51.33;;
20170;SDS011;10245;51.344;6.620;2024-02-28T08:33:54;138.93;;;51.58;;
20170;SDS011;10245;51.344;6.620;2024-02-28T08:36:17;146.63;;;54.40;;
20170;SDS011;10245;51.344;6.620;2024-02-28T08:38:41;139.23;;;53.30;;
20170;SDS011;10245;51.344;6.620;2024-02-28T08:41:04;140.73;;;54.35;;
20170;SDS011;10245;51.344;6.620;2024-02-28T08:43:28;141.15;;;53.83;;
20170;SDS011;10245;51.344;6.620;2024-02-28T08:45:51;143.00;;;54.17;;
20170;SDS011;10245;51.344;6.620;2024-02-28T08:48:16;151.82;;;56.13;;
20170;SDS011;10245;51.344;6.620;2024-02-28T08:50:41;135.18;;;51.47;;
20170;SDS011;10245;51.344;6.620;2024-02-28T08:53:04;144.85;;;56.17;;
20170;SDS011;10245;51.344;6.620;2024-02-28T08:55:28;133.07;;;53.17;;
20170;SDS011;10245;51.344;6.620;2024-02-28T08:57:52;140.70;;;54.03;;
20170;SDS011;10245;51.344;6.620;2024-02-28T09:00:16;130.07;;;51.53;;
20170;SDS011;10245;51.344;6.620;2024-02-28T09:02:40;121.38;;;49.53;;
20170;SDS011;10245;51.344;6.620;2024-02-28T09:05:04;128.88;;;49.88;;
20170;SDS011;10245;51.344;6.620;2024-02-28T09:07:29;123.85;;;48.97;;
20170;SDS011;10245;51.344;6.620;2024-02-28T09:09:53;117.63;;;49.33;;
20170;SDS011;10245;51.344;6.620;2024-02-28T09:12:17;120.60;;;48.58;;
20170;SDS011;10245;51.344;6.620;2024-02-28T09:14:40;121.88;;;50.65;;
20170;SDS011;10245;51.344;6.620;2024-02-28T09:17:03;117.55;;;47.35;;
20170;SDS011;10245;51.344;6.620;2024-02-28T09:19:27;129.98;;;49.55;;
20170;SDS011;10245;51.344;6.620;2024-02-28T09:21:50;124.28;;;52.72;;
20170;SDS011;10245;51.344;6.620;2024-02-28T09:24:15;122.53;;;50.83;;
20170;SDS011;10245;51.344;6.620;2024-02-28T09:26:40;128.15;;;51.40;;
20170;SDS011;10245;51.344;6.620;2024-02-28T09:29:03;123.10;;;51.17;;
20170;SDS011;10245;51.344;6.620;2024-02-28T09:31:26;125.95;;;49.58;;
20170;SDS011;10245;51.344;6.620;2024-02-28T09:33:50;117.78;;;49.65;;
20170;SDS011;10245;51.344;6.620;2024-02-28T09:36:13;115.22;;;49.20;;
20170;SDS011;10245;51.344;6.620;2024-02-28T09:38:36;115.03;;;48.25;;
20170;SDS011;10245;51.344;6.620;2024-02-28T09:41:01;117.20;;;48.72;;
20170;SDS011;10245;51.344;6.620;2024-02-28T09:43:28;104.00;;;46.53;;
20170;SDS011;10245;51.344;6.620;2024-02-28T09:45:53;119.07;;;49.97;;
20170;SDS011;10245;51.344;6.620;2024-02-28T09:48:20;115.85;;;47.78;;
20170;SDS011;10245;51.344;6.620;2024-02-28T09:50:45;119.78;;;49.75;;
20170;SDS011;10245;51.344;6.620;2024-02-28T09:53:08;110.93;;;46.13;;
20170;SDS011;10245;51.344;6.620;2024-02-28T09:55:32;114.18;;;48.40;;
20170;SDS011;10245;51.344;6.620;2024-02-28T09:57:56;116.72;;;47.80;;
20170;SDS011;10245;51.344;6.620;2024-02-28T10:00:20;101.28;;;43.92;;
20170;SDS011;10245;51.344;6.620;2024-02-28T10:02:44;96.18;;;43.00;;
20170;SDS011;10245;51.344;6.620;2024-02-28T10:05:09;97.50;;;42.60;;
20170;SDS011;10245;51.344;6.620;2024-02-28T10:07:33;101.18;;;43.97;;
20170;SDS011;10245;51.344;6.620;2024-02-28T10:09:56;96.80;;;42.55;;
20170;SDS011;10245;51.344;6.620;2024-02-28T10:12:20;102.63;;;45.42;;
20170;SDS011;10245;51.344;6.620;2024-02-28T10:14:44;113.70;;;45.58;;
20170;SDS011;10245;51.344;6.620;2024-02-28T10:17:08;103.07;;;44.25;;
20170;SDS011;10245;51.344;6.620;2024-02-28T10:19:31;108.88;;;45.80;;
20170;SDS011;10245;51.344;6.620;2024-02-28T10:21:55;97.35;;;41.83;;
20170;SDS011;10245;51.344;6.620;2024-02-28T10:24:19;93.00;;;39.97;;
20170;SDS011;10245;51.344;6.620;2024-02-28T10:26:44;87.72;;;40.47;;
20170;SDS011;10245;51.344;6.620;2024-02-28T10:29:17;89.38;;;40.80;;
20170;SDS011;10245;51.344;6.620;2024-02-28T10:31:44;80.57;;;37.85;;
20170;SDS011;10245;51.344;6.620;2024-02-28T10:34:08;91.72;;;39.83;;
20170;SDS011;10245;51.344;6.620;2024-02-28T10:36:32;82.15;;;37.20;;
20170;SDS011;10245;51.344;6.620;2024-02-28T10:38:55;85.55;;;38.60;;
20170;SDS011;10245;51.344;6.620;2024-02-28T10:41:19;78.90;;;36.35;;
20170;SDS011;10245;51.344;6.620;2024-02-28T10:43:42;81.57;;;38.38;;
20170;SDS011;10245;51.344;6.620;2024-02-28T10:46:06;86.00;;;39.42;;
20170;SDS011;10245;51.344;6.620;2024-02-28T10:48:52;81.25;;;38.22;;
20170;SDS011;10245;51.344;6.620;2024-02-28T10:51:16;85.63;;;39.90;;
20170;SDS011;10245;51.344;6.620;2024-02-28T10:53:44;77.55;;;38.80;;
20170;SDS011;10245;51.344;6.620;2024-02-28T10:56:12;82.88;;;37.65;;
20170;SDS011;10245;51.344;6.620;2024-02-28T10:58:44;85.97;;;38.50;;
20170;SDS011;10245;51.344;6.620;2024-02-28T11:01:14;72.40;;;35.75;;
20170;SDS011;10245;51.344;6.620;2024-02-28T11:03:38;71.05;;;34.65;;
20170;SDS011;10245;51.344;6.620;2024-02-28T11:06:03;78.30;;;38.25;;
20170;SDS011;10245;51.344;6.620;2024-02-28T11:08:27;71.35;;;34.72;;
20170;SDS011;10245;51.344;6.620;2024-02-28T11:10:55;75.13;;;37.38;;
20170;SDS011;10245;51.344;6.620;2024-02-28T11:13:23;73.68;;;36.95;;
20170;SDS011;10245;51.344;6.620;2024-02-28T11:15:47;76.65;;;37.88;;
20170;SDS011;10245;51.344;6.620;2024-02-28T11:18:11;68.20;;;34.70;;
20170;SDS011;10245;51.344;6.620;2024-02-28T11:20:35;70.45;;;35.42;;
20170;SDS011;10245;51.344;6.620;2024-02-28T11:22:59;70.53;;;35.20;;
20170;SDS011;10245;51.344;6.620;2024-02-28T11:25:22;65.53;;;34.28;;
20170;SDS011;10245;51.344;6.620;2024-02-28T11:27:46;72.05;;;34.97;;
20170;SDS011;10245;51.344;6.620;2024-02-28T11:30:11;67.50;;;34.05;;
20170;SDS011;10245;51.344;6.620;2024-02-28T11:32:37;69.50;;;35.67;;
20170;SDS011;10245;51.344;6.620;2024-02-28T11:35:00;68.25;;;33.50;;
20170;SDS011;10245;51.344;6.620;2024-02-28T11:37:24;66.75;;;35.17;;
20170;SDS011;10245;51.344;6.620;2024-02-28T11:39:49;67.28;;;34.00;;
20170;SDS011;10245;51.344;6.620;2024-02-28T11:42:13;67.85;;;33.58;;
20170;SDS011;10245;51.344;6.620;2024-02-28T11:44:38;63.85;;;33.50;;
20170;SDS011;10245;51.344;6.620;2024-02-28T11:47:02;63.13;;;30.58;;
20170;SDS011;10245;51.344;6.620;2024-02-28T11:49:26;58.85;;;32.38;;
20170;SDS011;10245;51.344;6.620;2024-02-28T11:51:49;61.65;;;33.78;;
20170;SDS011;10245;51.344;6.620;2024-02-28T11:54:12;61.00;;;32.20;;
20170;SDS011;10245;51.344;6.620;2024-02-28T11:56:37;60.10;;;32.72;;
20170;SDS011;10245;51.344;6.620;2024-02-28T11:59:01;62.78;;;32.60;;
20170;SDS011;10245;51.344;6.620;2024-02-28T12:01:33;60.70;;;33.10;;
20170;SDS011;10245;51.344;6.620;2024-02-28T12:04:01;58.83;;;30.85;;
20170;SDS011;10245;51.344;6.620;2024-02-28T12:06:26;59.78;;;32.20;;
20170;SDS011;10245;51.344;6.620;2024-02-28T12:08:50;60.63;;;32.00;;
20170;SDS011;10245;51.344;6.620;2024-02-28T12:11:13;57.35;;;32.30;;
20170;SDS011;10245;51.344;6.620;2024-02-28T12:13:38;61.33;;;32.97;;
20170;SDS011;10245;51.344;6.620;2024-02-28T12:16:02;63.72;;;32.65;;
20170;SDS011;10245;51.344;6.620;2024-02-28T12:18:26;64.40;;;32.00;;
20170;SDS011;10245;51.344;6.620;2024-02-28T12:20:49;55.35;;;30.42;;
20170;SDS011;10245;51.344;6.620;2024-02-28T12:23:13;53.92;;;31.38;;
20170;SDS011;10245;51.344;6.620;2024-02-28T12:25:39;55.67;;;32.53;;
20170;SDS011;10245;51.344;6.620;2024-02-28T12:28:02;52.50;;;31.65;;
20170;SDS011;10245;51.344;6.620;2024-02-28T12:30:29;57.08;;;29.27;;
20170;SDS011;10245;51.344;6.620;2024-02-28T12:32:52;52.63;;;28.90;;
20170;SDS011;10245;51.344;6.620;2024-02-28T12:35:16;57.67;;;30.77;;
20170;SDS011;10245;51.344;6.620;2024-02-28T12:37:39;48.47;;;29.63;;
20170;SDS011;10245;51.344;6.620;2024-02-28T12:40:03;53.70;;;30.08;;
20170;SDS011;10245;51.344;6.620;2024-02-28T12:42:27;50.10;;;29.10;;
20170;SDS011;10245;51.344;6.620;2024-02-28T12:44:50;46.88;;;27.63;;
20170;SDS011;10245;51.344;6.620;2024-02-28T12:47:15;44.67;;;26.27;;
20170;SDS011;10245;51.344;6.620;2024-02-28T12:49:38;47.10;;;27.05;;
20170;SDS011;10245;51.344;6.620;2024-02-28T12:52:02;45.28;;;26.20;;
20170;SDS011;10245;51.344;6.620;2024-02-28T12:54:26;41.90;;;23.30;;
20170;SDS011;10245;51.344;6.620;2024-02-28T12:56:50;42.35;;;25.45;;
20170;SDS011;10245;51.344;6.620;2024-02-28T12:59:14;42.88;;;23.63;;
20170;SDS011;10245;51.344;6.620;2024-02-28T13:01:37;45.78;;;25.88;;
20170;SDS011;10245;51.344;6.620;2024-02-28T13:04:02;44.28;;;25.67;;
20170;SDS011;10245;51.344;6.620;2024-02-28T13:06:26;44.28;;;26.45;;
20170;SDS011;10245;51.344;6.620;2024-02-28T13:08:49;40.88;;;24.23;;
20170;SDS011;10245;51.344;6.620;2024-02-28T13:11:13;39.75;;;23.58;;
20170;SDS011;10245;51.344;6.620;2024-02-28T13:13:36;42.78;;;25.08;;
20170;SDS011;10245;51.344;6.620;2024-02-28T13:15:59;39.28;;;23.00;;
20170;SDS011;10245;51.344;6.620;2024-02-28T13:18:23;38.97;;;22.92;;
20170;SDS011;10245;51.344;6.620;2024-02-28T13:20:48;43.00;;;23.58;;
20170;SDS011;10245;51.344;6.620;2024-02-28T13:23:11;41.22;;;23.60;;
20170;SDS011;10245;51.344;6.620;2024-02-28T13:25:35;36.25;;;21.50;;
20170;SDS011;10245;51.344;6.620;2024-02-28T13:27:58;39.80;;;21.75;;
20170;SDS011;10245;51.344;6.620;2024-02-28T13:30:21;33.95;;;19.58;;
20170;SDS011;10245;51.344;6.620;2024-02-28T13:32:45;31.67;;;18.95;;
20170;SDS011;10245;51.344;6.620;2024-02-28T13:35:10;37.28;;;18.95;;
20170;SDS011;10245;51.344;6.620;2024-02-28T13:37:35;29.92;;;17.00;;
20170;SDS011;10245;51.344;6.620;2024-02-28T13:40:01;33.00;;;18.33;;
20170;SDS011;10245;51.344;6.620;2024-02-28T13:42:29;28.90;;;16.83;;
20170;SDS011;10245;51.344;6.620;2024-02-28T13:44:53;32.70;;;17.58;;
20170;SDS011;10245;51.344;6.620;2024-02-28T13:47:17;32.97;;;18.00;;
20170;SDS011;10245;51.344;6.620;2024-02-28T13:49:41;28.70;;;16.48;;
20170;SDS011;10245;51.344;6.620;2024-02-28T13:52:04;27.75;;;16.30;;
20170;SDS011;10245;51.344;6.620;2024-02-28T13:54:29;26.92;;;15.68;;